Crossroads, NM

3:03 PM MDT on August 29, 2014 (GMT -0600)
KNMTATUM1 | Change Station
CLOSE
Current Station
Personal Weather Station
Location: Tatum, NM
Elevation: 4012 ft
Nearby Weather Stations

Elev 4012 ft 33.24 °N, 103.34 °W | Updated 0 second ago

Clear
Clear
87.2 °F
Feels Like 86 °F
N
2.1
Wind Variable Wind from North
Gusts 11.5 mph

Today
High -- | Low -- °F
--% Chance of Precip.
Yesterday
High -- | Low -- °F
Precip. -- in
6:25 AM 7:22 PM
Waxing Crescent, 16% visible
Pressure 30.01 in
Visibility 10.0 miles
Clouds Few 6000 ft
Heat Index 86 °F
Dew Point 56 °F
Humidity 35%
Rainfall 0.00 in
Snow Depth Not available.
UV 8 out of 12
Pollen 9.30 out of 12
Air Quality Not available.
Flu Activity Not available.
METAR KHOB 292050Z 06005KT 10SM FEW060 30/13 A3001

More Conditions Fewer Conditions

Pressure 30.01 in
Visibility 10.0 miles
Clouds Few 6000 ft
Heat Index 86 °F
Dew Point 56 °F
Humidity 35%
Rainfall 0.00 in
Snow Depth Not available.
UV 8 out of 12
Pollen 9.30 out of 12
Air Quality Not available.
Flu Activity Not available.
METAR KHOB 292050Z 06005KT 10SM FEW060 30/13 A3001

More Conditions Fewer Conditions

10-Day Weather Forecast

Almanac

Astronomy

Aug. 29, 2014 Rise Set
Actual Time 6:25 AM MDT 7:22 PM MDT
Civil Twilight 5:59 AM MDT 7:47 PM MDT
Nautical Twilight 5:29 AM MDT 8:18 PM MDT
Astronomical Twilight 4:58 AM MDT 8:49 PM MDT
Moon 10:03 AM MDT 9:35 PM MDT
Length of Visible Light 13h 48m
Length of Day
12h 57m
Tomorrow will be 1m 59s shorter.
Waxing Crescent, 16% of the Moon is Illuminated
Today
Waxing Crescent
Sep 2
First Quarter
Sep 8
Full
Sep 15
Last Quarter
Sep 24
New

Today's Extremes

State Highs State Lows

Community

WunderPhotos

Upload Photos

1,748,347 photos uploaded!

Nearby

Snow Depth

Station Depth Elevation
Sierra Blanca 0 in 10280 ft
Wesner Springs 2 in 11120 ft
Tolby 0 in 10180 ft
North Costilla 0 in 10600 ft
Silver Creek Divide 18 in 9000 ft

Earthquake Activity

City Distance Mag. Time & Date
No recent earthquake activity has been reported nearby.
Minimum magnitude displayed is 2.5.

Coastal Water Temperatures

Place Temperature
No Stations Reporting

Nearby Weather Stations